createdAt,value
2016-09-10T00:00:02.567Z,99.73
2016-09-10T00:01:01.993Z,99.99
2016-09-10T00:02:02.300Z,99.99
2016-09-10T00:03:02.282Z,99.99
2016-09-10T00:04:01.950Z,99.99
2016-09-10T00:05:02.270Z,99.99
2016-09-10T00:06:02.263Z,99.99
2016-09-10T00:07:02.277Z,99.99
2016-09-10T00:08:01.904Z,99.99
2016-09-10T00:09:02.208Z,99.99
2016-09-10T00:10:01.868Z,99.99
2016-09-10T00:11:02.116Z,99.99
2016-09-10T00:12:01.877Z,99.99
2016-09-10T00:13:01.878Z,99.99
2016-09-10T00:14:01.843Z,99.99
2016-09-10T00:15:01.852Z,99.99
2016-09-10T00:16:02.119Z,99.99
2016-09-10T00:17:01.941Z,99.99
2016-09-10T00:18:01.788Z,99.99
2016-09-10T00:19:01.853Z,99.99
2016-09-10T00:20:01.768Z,99.99
2016-09-10T00:21:01.751Z,99.99
2016-09-10T00:22:01.713Z,99.99
2016-09-10T00:23:01.710Z,99.99
2016-09-10T00:24:01.695Z,99.99
2016-09-10T00:25:02.238Z,99.99
2016-09-10T00:26:01.667Z,99.99
2016-09-10T00:27:01.665Z,99.99
2016-09-10T00:28:01.642Z,99.99
2016-09-10T00:29:01.630Z,99.99
2016-09-10T00:30:02.706Z,99.99
2016-09-10T00:31:01.602Z,99.99
2016-09-10T00:32:01.677Z,99.99
2016-09-10T00:33:01.591Z,99.99
2016-09-10T00:34:01.553Z,99.99
2016-09-10T00:35:01.584Z,99.99
2016-09-10T00:36:01.532Z,99.99
2016-09-10T00:37:01.534Z,99.99
2016-09-10T00:38:01.503Z,99.99
2016-09-10T00:39:01.817Z,99.99
2016-09-10T00:40:01.489Z,99.99
2016-09-10T00:41:01.478Z,99.99
2016-09-10T00:42:01.498Z,99.99
2016-09-10T00:43:01.487Z,99.99
2016-09-10T00:44:01.735Z,99.99
2016-09-10T00:45:01.417Z,99.99
2016-09-10T00:46:01.401Z,99.99
2016-09-10T00:47:01.427Z,99.99
2016-09-10T00:48:01.422Z,99.99
2016-09-10T00:49:01.368Z,99.99
2016-09-10T00:50:01.346Z,99.99
2016-09-10T00:51:01.348Z,99.99
2016-09-10T00:52:01.308Z,99.99
2016-09-10T00:53:01.609Z,99.99
2016-09-10T00:54:01.615Z,99.99
2016-09-10T00:55:01.292Z,99.99
2016-09-10T00:56:01.263Z,99.99
2016-09-10T00:57:01.558Z,99.99
2016-09-10T00:58:01.234Z,99.99
2016-09-10T00:59:01.295Z,99.99
2016-09-10T01:00:01.210Z,99.99
2016-09-10T01:01:01.511Z,99.99
2016-09-10T01:02:01.553Z,99.99
2016-09-10T01:03:01.536Z,99.99
2016-09-10T01:04:01.220Z,99.99
2016-09-10T01:05:01.165Z,99.99
2016-09-10T01:06:01.122Z,99.99
2016-09-10T01:07:01.528Z,99.99
2016-09-10T01:08:01.100Z,99.99
2016-09-10T01:09:01.220Z,99.99
2016-09-10T01:10:01.062Z,99.99
2016-09-10T01:11:01.051Z,99.99
2016-09-10T01:12:01.037Z,99.99
2016-09-10T01:13:01.026Z,99.99
2016-09-10T01:14:01.022Z,99.99
2016-09-10T01:15:01.002Z,99.99
2016-09-10T01:16:01.318Z,99.99
2016-09-10T01:17:00.972Z,99.99
2016-09-10T01:18:00.970Z,99.99
2016-09-10T01:19:00.953Z,99.99
2016-09-10T01:20:01.010Z,99.99
2016-09-10T01:21:00.937Z,99.99
2016-09-10T01:22:00.909Z,99.99
2016-09-10T01:23:00.889Z,99.99
2016-09-10T01:24:00.950Z,99.99
2016-09-10T01:25:00.865Z,99.99
2016-09-10T01:26:01.194Z,99.99
2016-09-10T01:27:00.822Z,99.99
2016-09-10T01:28:00.899Z,99.99
2016-09-10T01:29:01.222Z,99.99
2016-09-10T01:30:00.818Z,99.99
2016-09-10T01:31:00.778Z,99.99
2016-09-10T01:32:01.088Z,99.99
2016-09-10T01:33:00.762Z,99.99
2016-09-10T01:34:00.745Z,99.99
2016-09-10T01:35:00.726Z,99.99
2016-09-10T01:36:00.704Z,99.99
2016-09-10T01:37:01.039Z,99.99
2016-09-10T01:38:00.861Z,99.99
2016-09-10T01:39:00.673Z,99.99
2016-09-10T01:40:00.671Z,99.99
2016-09-10T01:41:00.667Z,99.99
2016-09-10T01:42:00.637Z,99.99
2016-09-10T01:43:00.602Z,99.99
2016-09-10T01:44:00.601Z,99.99
2016-09-10T01:45:00.923Z,99.99
2016-09-10T01:46:00.589Z,99.99
2016-09-10T01:47:01.637Z,99.99
2016-09-10T01:48:00.553Z,99.99
2016-09-10T01:49:01.034Z,99.99
2016-09-10T01:50:00.521Z,99.99
2016-09-10T01:51:00.560Z,99.99
2016-09-10T01:52:00.516Z,99.99
2016-09-10T01:53:00.866Z,99.99
2016-09-10T01:54:00.516Z,99.99
2016-09-10T01:55:00.516Z,99.99
2016-09-10T01:56:00.445Z,99.99
2016-09-10T01:57:00.559Z,99.99
2016-09-10T01:58:00.655Z,99.99
2016-09-10T01:59:00.703Z,99.99
2016-09-10T02:00:00.791Z,99.99
2016-09-10T02:01:00.361Z,99.99
2016-09-10T02:02:00.859Z,99.99
2016-09-10T02:03:00.346Z,99.99
2016-09-10T02:04:00.553Z,99.99
2016-09-10T02:05:00.314Z,99.99
2016-09-10T02:06:00.337Z,99.99
2016-09-10T02:07:00.293Z,99.99
2016-09-10T02:08:00.256Z,99.99
2016-09-10T02:09:00.770Z,99.99
2016-09-10T02:10:00.282Z,99.99
2016-09-10T02:11:00.231Z,99.99
2016-09-10T02:12:00.229Z,99.99
2016-09-10T02:13:00.200Z,99.99
2016-09-10T02:14:00.217Z,99.99
2016-09-10T02:15:00.228Z,99.99
2016-09-10T02:16:00.153Z,99.99
2016-09-10T02:17:00.476Z,99.99
2016-09-10T02:18:00.121Z,99.99
2016-09-10T02:19:00.211Z,99.99
2016-09-10T02:20:00.193Z,99.99
2016-09-10T02:21:00.090Z,99.99
2016-09-10T02:22:00.390Z,99.99
2016-09-10T02:23:00.586Z,99.99
2016-09-10T02:24:00.443Z,99.99
2016-09-10T02:25:00.030Z,99.99
2016-09-10T02:26:00.403Z,99.99
2016-09-10T02:26:59.996Z,99.99
2016-09-10T02:27:59.978Z,99.99
2016-09-10T02:28:59.977Z,99.99
2016-09-10T02:29:59.947Z,99.99
2016-09-10T02:30:59.947Z,99.99
2016-09-10T02:31:59.930Z,99.99
2016-09-10T02:33:00.298Z,99.99
2016-09-10T02:33:59.920Z,99.99
2016-09-10T02:34:59.886Z,99.99
2016-09-10T02:35:59.853Z,99.99
2016-09-10T02:37:00.193Z,99.99
2016-09-10T02:37:59.829Z,99.99
2016-09-10T02:39:00.156Z,99.99
2016-09-10T02:39:59.825Z,99.99
2016-09-10T02:41:00.119Z,99.99
2016-09-10T02:41:59.806Z,99.99
2016-09-10T02:43:00.092Z,99.99
2016-09-10T02:43:59.755Z,99.99
2016-09-10T02:44:59.733Z,99.99
2016-09-10T02:45:59.733Z,99.99
2016-09-10T02:46:59.757Z,99.99
2016-09-10T02:47:59.693Z,99.99
2016-09-10T02:48:59.998Z,99.99
2016-09-10T02:49:59.678Z,99.99
2016-09-10T02:50:59.659Z,99.99
2016-09-10T02:51:59.638Z,99.99
2016-09-10T02:52:59.622Z,99.99
2016-09-10T02:53:59.625Z,99.99
2016-09-10T02:54:59.606Z,99.99
2016-09-10T02:55:59.604Z,99.99
2016-09-10T02:56:59.899Z,99.99
2016-09-10T02:57:59.881Z,99.99
2016-09-10T02:58:59.549Z,99.99
2016-09-10T02:59:59.852Z,99.99
2016-09-10T03:00:59.518Z,99.99
2016-09-10T03:01:59.492Z,99.99
2016-09-10T03:02:59.498Z,99.99
2016-09-10T03:03:59.477Z,99.99
2016-09-10T03:04:59.461Z,99.99
2016-09-10T03:05:59.444Z,99.99
2016-09-10T03:06:59.770Z,99.99
2016-09-10T03:07:59.427Z,99.99
2016-09-10T03:08:59.459Z,99.99
2016-09-10T03:09:59.389Z,99.99
2016-09-10T03:10:59.702Z,99.99
2016-09-10T03:11:59.356Z,99.99
2016-09-10T03:12:59.674Z,99.99
2016-09-10T03:13:59.324Z,99.99
2016-09-10T03:14:59.371Z,99.99
2016-09-10T03:15:59.297Z,99.99
2016-09-10T03:16:59.294Z,99.99
2016-09-10T03:17:59.590Z,99.99
2016-09-10T03:18:59.273Z,99.99
2016-09-10T03:19:59.236Z,99.99
2016-09-10T03:20:59.239Z,99.99
2016-09-10T03:21:59.221Z,99.99
2016-09-10T03:22:59.330Z,99.99
2016-09-10T03:23:59.185Z,99.99
2016-09-10T03:24:59.529Z,99.99
2016-09-10T03:25:59.474Z,99.99
2016-09-10T03:26:59.476Z,99.99
2016-09-10T03:27:59.155Z,99.99
2016-09-10T03:28:59.112Z,99.99
2016-09-10T03:29:59.093Z,99.99
2016-09-10T03:30:59.089Z,99.99
2016-09-10T03:31:59.070Z,99.99
2016-09-10T03:32:59.441Z,99.99
2016-09-10T03:33:59.037Z,99.99
2016-09-10T03:34:59.034Z,99.99
2016-09-10T03:35:59.020Z,99.99
2016-09-10T03:36:59.058Z,99.99
2016-09-10T03:37:58.987Z,99.99
2016-09-10T03:38:59.000Z,99.99
2016-09-10T03:39:58.941Z,99.99
2016-09-10T03:40:58.979Z,99.99
2016-09-10T03:41:58.918Z,99.99
2016-09-10T03:42:58.936Z,99.99
2016-09-10T03:43:58.920Z,99.99
2016-09-10T03:44:58.920Z,99.99
2016-09-10T03:45:58.858Z,99.99
2016-09-10T03:46:58.866Z,99.99
2016-09-10T03:47:58.844Z,99.99
2016-09-10T03:48:58.832Z,99.99
2016-09-10T03:49:58.814Z,99.99
2016-09-10T03:50:58.804Z,99.99
2016-09-10T03:51:58.783Z,99.99
2016-09-10T03:52:58.774Z,99.99
2016-09-10T03:53:58.762Z,99.99
2016-09-10T03:54:58.757Z,99.99
2016-09-10T03:55:58.740Z,99.99
2016-09-10T03:56:58.724Z,99.99
2016-09-10T03:57:59.015Z,99.99
2016-09-10T03:58:58.687Z,99.99
2016-09-10T03:59:58.669Z,99.99
2016-09-10T04:00:58.655Z,99.99
2016-09-10T04:01:58.642Z,99.99
2016-09-10T04:02:58.664Z,99.99
2016-09-10T04:03:58.934Z,99.99
2016-09-10T04:04:58.934Z,99.99
2016-09-10T04:05:58.576Z,99.99
2016-09-10T04:06:58.571Z,99.99
2016-09-10T04:07:58.978Z,99.99
2016-09-10T04:08:58.533Z,99.99
2016-09-10T04:09:58.521Z,99.99
2016-09-10T04:10:58.562Z,99.99
2016-09-10T04:11:58.515Z,99.99
2016-09-10T04:12:58.934Z,99.99
2016-09-10T04:13:58.476Z,99.99
2016-09-10T04:14:58.454Z,99.99
2016-09-10T04:15:58.767Z,99.99
2016-09-10T04:16:58.418Z,99.99
2016-09-10T04:17:58.412Z,99.99
2016-09-10T04:18:58.411Z,99.99
2016-09-10T04:19:58.391Z,99.99
2016-09-10T04:20:58.395Z,99.99
2016-09-10T04:21:58.664Z,99.99
2016-09-10T04:22:58.332Z,99.99
2016-09-10T04:23:58.642Z,99.99
2016-09-10T04:24:58.632Z,99.99
2016-09-10T04:25:58.613Z,99.99
2016-09-10T04:26:58.275Z,99.99
2016-09-10T04:27:58.262Z,99.99
2016-09-10T04:28:58.248Z,99.99
2016-09-10T04:29:58.249Z,99.99
2016-09-10T04:30:58.225Z,99.99
2016-09-10T04:31:58.533Z,99.99
2016-09-10T04:32:58.237Z,99.99
2016-09-10T04:33:58.174Z,99.99
2016-09-10T04:34:58.170Z,99.99
2016-09-10T04:35:58.156Z,99.99
2016-09-10T04:36:58.466Z,99.99
2016-09-10T04:37:58.137Z,99.99
2016-09-10T04:38:58.122Z,99.99
2016-09-10T04:39:58.095Z,99.99
2016-09-10T04:40:58.085Z,99.99
2016-09-10T04:41:58.076Z,99.99
2016-09-10T04:42:58.041Z,99.99
2016-09-10T04:43:58.359Z,99.99
2016-09-10T04:44:58.037Z,99.99
2016-09-10T04:45:58.345Z,99.99
2016-09-10T04:46:58.002Z,99.99
2016-09-10T04:47:57.992Z,99.99
2016-09-10T04:48:58.266Z,99.99
2016-09-10T04:49:57.953Z,99.99
2016-09-10T04:50:57.948Z,99.99
2016-09-10T04:51:57.912Z,99.99
2016-09-10T04:52:58.214Z,99.99
2016-09-10T04:53:57.892Z,99.99
2016-09-10T04:54:57.876Z,99.99
2016-09-10T04:55:57.870Z,99.99
2016-09-10T04:56:57.856Z,99.99
2016-09-10T04:57:57.831Z,99.99
2016-09-10T04:58:57.810Z,99.99
2016-09-10T04:59:58.124Z,99.99
2016-09-10T05:00:57.790Z,99.99
2016-09-10T05:01:57.780Z,99.99
2016-09-10T05:02:57.761Z,99.99
2016-09-10T05:03:57.749Z,99.99
2016-09-10T05:04:57.740Z,99.99
2016-09-10T05:05:57.705Z,99.99
2016-09-10T05:06:57.728Z,99.99
2016-09-10T05:07:58.012Z,99.99
2016-09-10T05:08:57.704Z,99.99
2016-09-10T05:09:57.660Z,99.99
2016-09-10T05:10:57.639Z,99.99
2016-09-10T05:11:57.643Z,99.99
2016-09-10T05:12:57.620Z,99.99
2016-09-10T05:13:57.603Z,99.99
2016-09-10T05:14:57.603Z,99.99
2016-09-10T05:15:57.581Z,99.99
2016-09-10T05:16:57.617Z,99.99
2016-09-10T05:17:57.540Z,99.99
2016-09-10T05:18:57.540Z,99.99
2016-09-10T05:19:57.563Z,99.99
2016-09-10T05:20:57.816Z,99.99
2016-09-10T05:21:57.485Z,99.99
2016-09-10T05:22:57.479Z,99.99
2016-09-10T05:23:57.854Z,99.99
2016-09-10T05:24:57.454Z,99.99
2016-09-10T05:25:57.437Z,99.99
2016-09-10T05:26:57.424Z,99.99
2016-09-10T05:27:57.418Z,99.99
2016-09-10T05:28:57.384Z,99.99
2016-09-10T05:29:57.720Z,99.99
2016-09-10T05:30:57.696Z,99.99
2016-09-10T05:31:57.353Z,99.99
2016-09-10T05:32:57.342Z,99.99
2016-09-10T05:33:57.640Z,99.99
2016-09-10T05:34:57.290Z,99.99
2016-09-10T05:35:57.280Z,99.99
2016-09-10T05:36:57.266Z,99.99
2016-09-10T05:37:57.259Z,99.99
2016-09-10T05:38:57.243Z,99.99
2016-09-10T05:39:57.269Z,99.99
2016-09-10T05:40:57.201Z,99.99
2016-09-10T05:41:57.231Z,99.99
2016-09-10T05:42:57.229Z,99.99
2016-09-10T05:43:57.551Z,99.99
2016-09-10T05:44:57.155Z,99.99
2016-09-10T05:45:57.147Z,99.99
2016-09-10T05:46:57.444Z,99.99
2016-09-10T05:47:57.420Z,99.99
2016-09-10T05:48:57.109Z,99.99
2016-09-10T05:49:57.083Z,99.99
2016-09-10T05:50:57.070Z,99.99
2016-09-10T05:51:57.054Z,99.99
2016-09-10T05:52:57.045Z,99.99
2016-09-10T05:53:57.030Z,99.99
2016-09-10T05:54:57.010Z,99.99
2016-09-10T05:55:57.000Z,99.99
2016-09-10T05:56:56.981Z,99.99
2016-09-10T05:57:56.994Z,99.99
2016-09-10T05:58:56.950Z,99.99
2016-09-10T05:59:56.943Z,99.99
2016-09-10T06:00:56.921Z,99.99
2016-09-10T06:01:57.045Z,99.99
2016-09-10T06:02:56.963Z,99.99
2016-09-10T06:03:57.201Z,99.99
2016-09-10T06:04:57.249Z,99.99
2016-09-10T06:05:56.849Z,99.99
2016-09-10T06:06:56.854Z,99.99
2016-09-10T06:07:57.139Z,99.99
2016-09-10T06:08:56.821Z,99.99
2016-09-10T06:09:56.789Z,99.99
2016-09-10T06:10:56.771Z,99.99
2016-09-10T06:11:56.772Z,99.99
2016-09-10T06:12:56.766Z,99.99
2016-09-10T06:13:57.061Z,99.99
2016-09-10T06:14:56.791Z,99.99
2016-09-10T06:15:56.750Z,99.99
2016-09-10T06:16:56.689Z,99.99
2016-09-10T06:17:56.690Z,99.99
2016-09-10T06:18:56.662Z,99.99
2016-09-10T06:19:56.672Z,99.99
2016-09-10T06:20:56.637Z,99.99
2016-09-10T06:21:56.625Z,99.99
2016-09-10T06:22:56.597Z,99.99
2016-09-10T06:23:56.598Z,99.99
2016-09-10T06:24:56.584Z,99.99
2016-09-10T06:25:56.564Z,99.99
2016-09-10T06:26:56.554Z,99.99
2016-09-10T06:27:56.533Z,99.99
2016-09-10T06:28:56.519Z,99.99
2016-09-10T06:29:56.513Z,99.99
2016-09-10T06:30:56.828Z,99.99
2016-09-10T06:31:56.498Z,99.99
2016-09-10T06:32:56.468Z,99.99
2016-09-10T06:33:56.480Z,99.99
2016-09-10T06:34:56.796Z,99.99
2016-09-10T06:35:56.764Z,99.99
2016-09-10T06:36:56.407Z,99.99
2016-09-10T06:37:56.659Z,99.99
2016-09-10T06:38:56.409Z,99.99
2016-09-10T06:39:56.378Z,99.99
2016-09-10T06:40:56.367Z,99.99
2016-09-10T06:41:56.347Z,99.99
2016-09-10T06:42:56.349Z,99.99
2016-09-10T06:43:56.325Z,99.99
2016-09-10T06:44:56.319Z,99.99
2016-09-10T06:45:56.289Z,99.99
2016-09-10T06:46:56.602Z,99.99
2016-09-10T06:47:56.277Z,99.64
2016-09-10T06:48:56.268Z,99.78
2016-09-10T06:49:56.250Z,99.3
2016-09-10T06:50:56.230Z,98.82
2016-09-10T06:51:56.588Z,98.72
2016-09-10T06:52:56.199Z,98.63
2016-09-10T06:53:56.515Z,98.54
2016-09-10T06:54:56.181Z,98.1
2016-09-10T06:55:56.178Z,97.24
2016-09-10T06:56:56.152Z,97.62
2016-09-10T06:57:56.149Z,97.14
2016-09-10T06:58:56.144Z,96.46
2016-09-10T06:59:56.118Z,96.12
2016-09-10T07:00:56.108Z,96.22
2016-09-10T07:01:56.098Z,96.22
2016-09-10T07:02:56.070Z,96.32
2016-09-10T07:03:56.059Z,96.22
2016-09-10T07:04:56.049Z,96.8
2016-09-10T07:05:56.363Z,96.94
2016-09-10T07:06:56.067Z,95.36
2016-09-10T07:07:56.020Z,94.06
2016-09-10T07:08:56.015Z,93.04
2016-09-10T07:09:56.386Z,90.62
2016-09-10T07:10:55.985Z,90.23
2016-09-10T07:11:55.983Z,89.79
2016-09-10T07:12:55.965Z,89.95
2016-09-10T07:13:55.970Z,89.95
2016-09-10T07:14:55.946Z,89.47
2016-09-10T07:15:55.937Z,89.07
2016-09-10T07:16:55.915Z,88.54
2016-09-10T07:17:55.922Z,88.64
2016-09-10T07:18:56.288Z,87.33
2016-09-10T07:19:55.908Z,84.61
2016-09-10T07:20:55.885Z,83.78
2016-09-10T07:21:55.873Z,82.95
2016-09-10T07:22:55.863Z,81.7
2016-09-10T07:23:55.855Z,82.8
2016-09-10T07:24:55.849Z,83.59
2016-09-10T07:25:55.857Z,84.08
2016-09-10T07:26:55.825Z,83.01
2016-09-10T07:27:55.809Z,84.11
2016-09-10T07:28:55.807Z,86.2
2016-09-10T07:29:55.786Z,87.33
2016-09-10T07:30:55.823Z,87.91
2016-09-10T07:31:55.772Z,88.29
2016-09-10T07:32:55.781Z,88.39
2016-09-10T07:33:55.747Z,87.81
2016-09-10T07:34:55.768Z,87.13
2016-09-10T07:35:55.767Z,87.66
2016-09-10T07:36:55.731Z,87.43
2016-09-10T07:37:55.785Z,89.26
2016-09-10T07:38:55.716Z,90.81
2016-09-10T07:39:55.703Z,90.14
2016-09-10T07:40:55.695Z,88.68
2016-09-10T07:41:56.020Z,88.29
2016-09-10T07:42:56.102Z,86.93
2016-09-10T07:43:55.666Z,85.42
2016-09-10T07:44:55.666Z,84.01
2016-09-10T07:45:55.668Z,83
2016-09-10T07:46:55.679Z,82.17
2016-09-10T07:47:55.656Z,83.58
2016-09-10T07:48:55.711Z,83.92
2016-09-10T07:49:55.706Z,84.25
2016-09-10T07:50:55.672Z,84.66
2016-09-10T07:51:55.634Z,86.4
2016-09-10T07:52:55.627Z,86.93
2016-09-10T07:53:55.639Z,86.65
2016-09-10T07:54:55.945Z,84.71
2016-09-10T07:55:55.617Z,82.86
2016-09-10T07:56:55.618Z,83.15
2016-09-10T07:57:55.913Z,81.73
2016-09-10T07:58:55.597Z,78.75
2016-09-10T07:59:55.593Z,75.92
2016-09-10T08:00:55.603Z,75.18
2016-09-10T08:01:55.930Z,76.15
2016-09-10T08:02:55.583Z,77.62
2016-09-10T08:03:55.597Z,79.3
2016-09-10T08:04:55.589Z,80.65
2016-09-10T08:05:55.575Z,81.58
2016-09-10T08:06:55.590Z,82.45
2016-09-10T08:07:55.559Z,83
2016-09-10T08:08:55.564Z,83.53
2016-09-10T08:09:55.560Z,84.06
2016-09-10T08:10:55.558Z,84.11
2016-09-10T08:11:55.549Z,84.6
2016-09-10T08:12:55.856Z,84.6
2016-09-10T08:13:55.547Z,84.06
2016-09-10T08:14:55.531Z,84.45
2016-09-10T08:15:55.618Z,84.16
2016-09-10T08:16:55.517Z,84.41
2016-09-10T08:17:55.509Z,84.01
2016-09-10T08:18:55.497Z,83.83
2016-09-10T08:19:55.510Z,84.69
2016-09-10T08:20:55.860Z,84.5
2016-09-10T08:21:55.479Z,84.99
2016-09-10T08:22:55.519Z,85.91
2016-09-10T08:23:55.784Z,86.69
2016-09-10T08:24:55.453Z,86.2
2016-09-10T08:25:55.458Z,86.44
2016-09-10T08:26:55.768Z,85.61
2016-09-10T08:27:55.420Z,86
2016-09-10T08:28:55.436Z,85.22
2016-09-10T08:29:55.413Z,84.39
2016-09-10T08:30:55.418Z,83.77
2016-09-10T08:31:55.411Z,83.09
2016-09-10T08:32:55.388Z,84.3
2016-09-10T08:33:55.689Z,84.74
2016-09-10T08:34:55.361Z,85.71
2016-09-10T08:35:55.405Z,85.76
2016-09-10T08:36:55.346Z,86.24
2016-09-10T08:37:55.347Z,85.47
2016-09-10T08:38:55.335Z,84.55
2016-09-10T08:39:55.318Z,83.96
2016-09-10T08:40:55.307Z,83.77
2016-09-10T08:41:55.298Z,83.67
2016-09-10T08:42:55.305Z,84.16
2016-09-10T08:43:55.359Z,82.84
2016-09-10T08:44:55.287Z,82.75
2016-09-10T08:45:55.274Z,82.78
2016-09-10T08:46:55.586Z,82.98
2016-09-10T08:47:55.561Z,82.4
2016-09-10T08:48:55.246Z,83.56
2016-09-10T08:49:57.158Z,82.65
2016-09-10T08:50:55.225Z,82.26
2016-09-10T08:51:55.237Z,82.1
2016-09-10T08:52:55.222Z,82.88
2016-09-10T08:53:55.260Z,82.5
2016-09-10T08:54:55.212Z,81.13
2016-09-10T08:55:55.191Z,82.1
2016-09-10T08:56:55.221Z,81.43
2016-09-10T08:57:55.168Z,80.65
2016-09-10T08:58:55.204Z,81.08
2016-09-10T08:59:55.172Z,79.96
2016-09-10T09:00:55.256Z,79.28
2016-09-10T09:01:55.145Z,77.92
2016-09-10T09:02:55.145Z,77.01
2016-09-10T09:03:55.127Z,78.46
2016-09-10T09:04:55.121Z,78.94
2016-09-10T09:05:55.122Z,78.27
2016-09-10T09:06:55.431Z,78.75
2016-09-10T09:07:55.124Z,78.71
2016-09-10T09:08:55.079Z,78.66
2016-09-10T09:09:55.089Z,78.42
2016-09-10T09:10:55.054Z,79.1
2016-09-10T09:11:55.049Z,79.2
2016-09-10T09:12:55.038Z,79.1
2016-09-10T09:13:55.026Z,78.91
2016-09-10T09:14:55.028Z,78.71
2016-09-10T09:15:55.021Z,77.59
2016-09-10T09:16:55.104Z,77.29
2016-09-10T09:17:54.988Z,77.59
2016-09-10T09:18:54.987Z,77.14
2016-09-10T09:19:55.049Z,77.34
2016-09-10T09:20:54.980Z,74.95
2016-09-10T09:21:55.290Z,74.85
2016-09-10T09:22:55.293Z,75.3
2016-09-10T09:23:54.943Z,74.37
2016-09-10T09:24:54.947Z,74.04
2016-09-10T09:25:55.268Z,74.13
2016-09-10T09:26:55.047Z,75.1
2016-09-10T09:27:54.932Z,75.04
2016-09-10T09:28:55.217Z,74.95
2016-09-10T09:29:54.903Z,74.37
2016-09-10T09:30:54.918Z,75.14
2016-09-10T09:31:54.885Z,75.04
2016-09-10T09:32:54.888Z,77.37
2016-09-10T09:33:54.865Z,76.92
2016-09-10T09:34:55.190Z,75.18
2016-09-10T09:35:55.183Z,75.34
2016-09-10T09:36:54.851Z,75.24
2016-09-10T09:37:54.842Z,74.65
2016-09-10T09:38:54.901Z,75.04
2016-09-10T09:39:54.817Z,75.67
2016-09-10T09:40:55.131Z,75.02
2016-09-10T09:41:55.121Z,74.92
2016-09-10T09:42:55.939Z,73.85
2016-09-10T09:43:54.790Z,72.88
2016-09-10T09:44:54.786Z,72.33
2016-09-10T09:45:55.255Z,72.33
2016-09-10T09:46:55.311Z,73.5
2016-09-10T09:47:54.771Z,72.63
2016-09-10T09:48:54.822Z,71.75
2016-09-10T09:49:54.740Z,72.69
2016-09-10T09:50:54.744Z,73.56
2016-09-10T09:51:54.742Z,73.18
2016-09-10T09:52:55.097Z,71.03
2016-09-10T09:53:54.708Z,71.81
2016-09-10T09:54:54.694Z,72.69
2016-09-10T09:55:55.280Z,72.88
2016-09-10T09:56:55.010Z,72.43
2016-09-10T09:57:55.024Z,70.39
2016-09-10T09:58:55.165Z,70.29
2016-09-10T09:59:54.664Z,68.67
2016-09-10T10:00:54.650Z,68.96
2016-09-10T10:01:54.654Z,69.35
2016-09-10T10:02:54.646Z,68.71
2016-09-10T10:03:54.634Z,68.41
2016-09-10T10:04:54.942Z,69.29
2016-09-10T10:05:54.609Z,69.1
2016-09-10T10:06:54.604Z,68.8
2016-09-10T10:07:54.606Z,69.29
2016-09-10T10:08:54.909Z,69.81
2016-09-10T10:09:54.591Z,69.13
2016-09-10T10:10:54.587Z,68.16
2016-09-10T10:11:54.677Z,68.16
2016-09-10T10:12:54.564Z,68.64
2016-09-10T10:13:54.558Z,69.23
2016-09-10T10:14:54.882Z,69.52
2016-09-10T10:15:54.563Z,69.71
2016-09-10T10:16:54.868Z,69.42
2016-09-10T10:17:54.623Z,69.65
2016-09-10T10:18:54.536Z,70.23
2016-09-10T10:19:54.847Z,69.56
2016-09-10T10:20:54.518Z,70.07
2016-09-10T10:21:54.535Z,68.9
2016-09-10T10:22:54.515Z,69.75
2016-09-10T10:23:54.498Z,70.78
2016-09-10T10:24:54.499Z,70.14
2016-09-10T10:25:54.542Z,70.14
2016-09-10T10:26:54.465Z,69.84
2016-09-10T10:27:54.771Z,67.83
2016-09-10T10:28:54.450Z,67.7
2016-09-10T10:29:54.443Z,67.99
2016-09-10T10:30:54.765Z,67.99
2016-09-10T10:31:54.778Z,69.03
2016-09-10T10:32:54.898Z,69.23
2016-09-10T10:33:54.417Z,68.74
2016-09-10T10:34:54.497Z,69.36
2016-09-10T10:35:54.416Z,67.93
2016-09-10T10:36:54.411Z,67.25
2016-09-10T10:37:54.388Z,67.74
2016-09-10T10:38:54.726Z,68.35
2016-09-10T10:39:54.395Z,68.74
2016-09-10T10:40:54.382Z,68.19
2016-09-10T10:41:54.374Z,67.12
2016-09-10T10:42:54.369Z,67.02
2016-09-10T10:43:54.352Z,68.06
2016-09-10T10:44:54.358Z,69.1
2016-09-10T10:45:54.345Z,70.56
2016-09-10T10:46:54.743Z,69.29
2016-09-10T10:47:54.688Z,69.07
2016-09-10T10:48:54.665Z,68.8
2016-09-10T10:49:54.651Z,68.23
2016-09-10T10:50:54.348Z,69.39
2016-09-10T10:51:54.307Z,68.62
2016-09-10T10:52:54.307Z,67.86
2016-09-10T10:53:54.637Z,67.18
2016-09-10T10:54:54.303Z,68.77
2016-09-10T10:55:54.283Z,68.29
2016-09-10T10:56:54.284Z,66.53
2016-09-10T10:57:54.274Z,67.25
2016-09-10T10:58:54.277Z,67.12
2016-09-10T10:59:54.253Z,68.58
2016-09-10T11:00:54.275Z,68.09
2016-09-10T11:01:54.253Z,67.7
2016-09-10T11:02:54.253Z,66.96
2016-09-10T11:03:54.250Z,67.05
2016-09-10T11:04:54.230Z,67.96
2016-09-10T11:05:54.242Z,67.74
2016-09-10T11:06:54.534Z,66.79
2016-09-10T11:07:54.214Z,65.82
2016-09-10T11:08:54.535Z,66.11
2016-09-10T11:09:54.190Z,65.88
2016-09-10T11:10:54.518Z,66.21
2016-09-10T11:11:54.187Z,65.53
2016-09-10T11:12:54.178Z,65.82
2016-09-10T11:13:54.175Z,66.79
2016-09-10T11:14:54.498Z,66.14
2016-09-10T11:15:54.161Z,66.66
2016-09-10T11:16:54.177Z,65.82
2016-09-10T11:17:54.186Z,65.72
2016-09-10T11:18:54.137Z,66.11
2016-09-10T11:19:54.129Z,67.02
2016-09-10T11:20:54.128Z,63.87
2016-09-10T11:21:54.226Z,63.64
2016-09-10T11:22:54.125Z,63.31
2016-09-10T11:23:54.152Z,63.8
2016-09-10T11:24:54.101Z,63.44
2016-09-10T11:25:54.143Z,62.5
2016-09-10T11:26:54.090Z,61.43
2016-09-10T11:27:54.098Z,61.43
2016-09-10T11:28:54.078Z,61.82
2016-09-10T11:29:54.397Z,63.15
2016-09-10T11:30:54.080Z,63.77
2016-09-10T11:31:54.429Z,63.7
2016-09-10T11:32:54.065Z,62.73
2016-09-10T11:33:54.057Z,63.02
2016-09-10T11:34:54.042Z,63.6
2016-09-10T11:35:54.133Z,62.56
2016-09-10T11:36:54.033Z,62.08
2016-09-10T11:37:54.352Z,61.91
2016-09-10T11:38:54.026Z,61.06
2016-09-10T11:39:54.034Z,60.47
2016-09-10T11:40:54.017Z,60.18
2016-09-10T11:41:54.012Z,59.92
2016-09-10T11:42:53.998Z,61.29
2016-09-10T11:43:53.984Z,59.85
2016-09-10T11:44:53.993Z,59.66
2016-09-10T11:45:54.000Z,60.53
2016-09-10T11:46:54.490Z,58.87
2016-09-10T11:47:53.991Z,59.56
2016-09-10T11:48:53.959Z,58.51
2016-09-10T11:49:53.987Z,58.22
2016-09-10T11:50:53.959Z,58.7
2016-09-10T11:51:53.953Z,58.22
2016-09-10T11:52:53.965Z,57.82
2016-09-10T11:53:53.937Z,57.63
2016-09-10T11:54:53.947Z,57.92
2016-09-10T11:55:53.933Z,57.76
2016-09-10T11:56:54.247Z,55.6
2016-09-10T11:57:53.908Z,55.47
2016-09-10T11:58:53.925Z,55.38
2016-09-10T11:59:53.919Z,54.21
2016-09-10T12:00:53.897Z,54.4
2016-09-10T12:01:53.911Z,54.4
2016-09-10T12:02:53.905Z,53.49
2016-09-10T12:03:54.266Z,53.78
2016-09-10T12:04:53.895Z,53.88
2016-09-10T12:05:53.889Z,54.28
2016-09-10T12:06:53.876Z,55.28
2016-09-10T12:07:54.187Z,55.28
2016-09-10T12:08:53.858Z,55.84
2016-09-10T12:09:53.858Z,55.45
2016-09-10T12:10:53.900Z,55.65
2016-09-10T12:11:53.875Z,55.65
2016-09-10T12:12:53.852Z,55.55
2016-09-10T12:13:53.834Z,54.5
2016-09-10T12:14:53.830Z,53.03
2016-09-10T12:15:54.215Z,52.44
2016-09-10T12:16:53.887Z,52.88
2016-09-10T12:17:53.809Z,52.69
2016-09-10T12:18:53.812Z,53.3
2016-09-10T12:19:53.799Z,53
2016-09-10T12:20:53.807Z,52.83
2016-09-10T12:21:53.805Z,54.21
2016-09-10T12:22:53.780Z,54.08
2016-09-10T12:23:53.807Z,54.01
2016-09-10T12:24:53.871Z,54.74
2016-09-10T12:25:53.782Z,54.64
2016-09-10T12:26:53.800Z,54.86
2016-09-10T12:27:53.769Z,53.13
2016-09-10T12:28:54.087Z,54.47
2016-09-10T12:29:53.770Z,54.5
2016-09-10T12:30:53.760Z,54.99
2016-09-10T12:31:53.746Z,54.33
2016-09-10T12:32:53.944Z,54.06
2016-09-10T12:33:53.798Z,54.75
2016-09-10T12:34:54.053Z,53.5
2016-09-10T12:35:53.756Z,52.72
2016-09-10T12:36:53.714Z,51.93
2016-09-10T12:37:53.721Z,51.05
2016-09-10T12:38:53.705Z,51.12
2016-09-10T12:39:53.711Z,51.71
2016-09-10T12:40:54.057Z,52.5
2016-09-10T12:41:53.705Z,51.93
2016-09-10T12:42:53.692Z,51.93
2016-09-10T12:43:53.686Z,51.73
2016-09-10T12:44:53.725Z,52.69
2016-09-10T12:45:53.675Z,52.67
2016-09-10T12:46:53.677Z,52.17
2016-09-10T12:47:53.975Z,52.96
2016-09-10T12:48:54.029Z,52.96
2016-09-10T12:49:53.655Z,52.89
2016-09-10T12:50:53.981Z,52.4
2016-09-10T12:51:53.990Z,52.69
2016-09-10T12:52:53.653Z,52.76
2016-09-10T12:53:53.697Z,52.08